• Join FlightAware (Why Join?)
  • Login
  • US Flag 
09:06PM EDT


 

Airport Tracker/Info


-or-


 

Live Flight TrackerFlight Track Log ✈ TAM3130 ✈ 17-Oct-2013 ✈ SBSP / CGH - SBVT / VIX

Flight Track Log - Related Links

Times and Time Zones

All times are in EDT time to prevent confusion due to time zone crossing. See the TAM3130 flight status page for this flight to view local times or setup timezone preferences in your user account.

Time Position Orientation Groundspeed Altitude Reporting Facility
EDT Latitude Longitude Course Direction KTS MPH feet Rate Location/Type
07:19AM -23.6210 -46.6610 318° Northwest  Level FlightAware
07:21AM -23.6200 -46.6610 62° Northeast 780 Level FlightAware
07:22AM -23.4925 -46.4024 62° Northeast  Level Estimated
07:23AM -23.6250 -46.6580 151° Southeast  Level FlightAware
07:23AM -23.6400 -46.6470 146° Southeast 152 175 3,200 5,040 Climbing FlightAware
07:23AM -23.6550 -46.6360 146° Southeast 174 200 3,700 1,080 Climbing FlightAware
07:24AM -23.6700 -46.6240 144° Southeast 203 234 4,000 900 Climbing FlightAware
07:24AM -23.6860 -46.6120 146° Southeast 224 258 4,300 780 Climbing FlightAware
07:24AM -23.6910 -46.6020 119° Southeast 243 280 4,400 1,080 Climbing FlightAware
07:24AM -23.6920 -46.5920 96° East 254 292 4,600 2,040 Climbing FlightAware
07:25AM -23.6850 -46.5670 73° East 263 303 5,400 2,100 Climbing FlightAware
07:25AM -23.6720 -46.5400 62° Northeast 277 319 6,100 2,100 Climbing FlightAware
07:25AM -23.6600 -46.5160 61° Northeast 287 330 6,800 2,520 Climbing FlightAware
07:26AM -23.6470 -46.4870 64° Northeast 290 334 7,900 2,580 Climbing FlightAware
07:26AM -23.6340 -46.4570 65° Northeast 299 344 8,700 1,980 Climbing FlightAware
07:26AM -23.6230 -46.4300 66° East 312 359 9,300 1,800 Climbing FlightAware
07:27AM -23.6140 -46.4080 66° East 315 362 9,800 1,620 Climbing FlightAware
07:27AM -23.5940 -46.3580 66° East 339 390 10,600 1,200 Climbing FlightAware
07:28AM -23.5720 -46.3040 66° East 373 429 11,100 1,620 Climbing FlightAware
07:28AM -23.5450 -46.2380 66° East 382 440 12,500 2,160 Climbing FlightAware
07:29AM -23.5180 -46.1720 66° East 388 447 13,800 2,040 Climbing FlightAware
07:29AM -23.4940 -46.1150 65° Northeast 397 457 14,900 1,920 Climbing FlightAware
07:30AM -23.4670 -46.0490 66° East 404 465 16,000 1,800 Climbing FlightAware
07:31AM -23.4420 -45.9880 66° East 414 476 17,000 1,560 Climbing FlightAware
07:31AM -23.4150 -45.9220 66° East 426 490 17,800 1,140 Climbing FlightAware
07:32AM -23.3860 -45.8510 66° East 444 511 18,400 1,260 Climbing FlightAware
07:32AM -23.3560 -45.7800 65° Northeast 452 520 19,300 1,680 Climbing FlightAware
07:33AM -23.3260 -45.7060 66° East 451 519 20,400 1,560 Climbing FlightAware
07:34AM -23.2880 -45.6160 65° Northeast 459 528 21,400 1,320 Climbing FlightAware
07:34AM -23.2580 -45.5430 66° East 468 539 22,100 1,320 Climbing FlightAware
07:35AM -23.2260 -45.4660 66° East 470 541 23,000 1,320 Climbing FlightAware
07:35AM -23.1880 -45.3750 66° East 476 548 23,800 1,140 Climbing FlightAware
07:36AM -23.1560 -45.2970 66° East 480 552 24,500 960 Climbing FlightAware
07:37AM -23.1250 -45.2230 66° East 490 564 25,000 960 Climbing FlightAware
07:37AM -23.0950 -45.1360 69° East 495 570 25,700 1,080 Climbing FlightAware
07:38AM -23.0660 -45.0550 69° East 499 574 26,300 1,020 Climbing FlightAware
07:38AM -23.0360 -44.9730 68° East 504 580 26,900 900 Climbing FlightAware
07:39AM -23.0060 -44.8890 69° East 509 586 27,400 1,020 Climbing FlightAware
07:40AM -22.9760 -44.8090 68° East 508 585 28,100 900 Climbing FlightAware
07:40AM -22.9460 -44.7280 68° East 516 594 28,500 540 Climbing FlightAware
07:41AM -22.9160 -44.6440 69° East 523 602 28,800 780 Climbing FlightAware
07:41AM -22.8860 -44.5640 68° East 520 598 29,400 1,080 Climbing FlightAware
07:42AM -22.8520 -44.4710 68° East 518 596 30,100 960 Climbing FlightAware
07:42AM -22.8220 -44.3910 68° East 520 598 30,600 780 Climbing FlightAware
07:43AM -22.7920 -44.3100 68° East 522 601 31,000 660 Climbing FlightAware
07:44AM -22.7580 -44.2180 68° East 529 609 31,400 720 Climbing FlightAware
07:44AM -22.7300 -44.1410 68° East 530 610 31,900 1,020 Climbing FlightAware
07:45AM -22.6910 -44.0390 68° East 529 609 32,600 900 Climbing FlightAware
07:45AM -22.6670 -43.9720 69° East 527 606 33,000 900 Climbing FlightAware
07:46AM -22.6390 -43.8970 68° East 524 603 33,600 1,140 Climbing FlightAware
07:47AM -22.5910 -43.7690 68° East 521 600 34,500 960 Climbing FlightAware
07:47AM -22.5570 -43.6780 68° East 520 598 35,000 360 Climbing FlightAware
07:48AM -22.5240 -43.5920 67° East 532 612 35,000  Level FlightAware
07:48AM -22.4940 -43.5110 68° East 540 621 35,000  Level FlightAware
07:49AM -22.4590 -43.4190 68° East 543 625 35,000  Level FlightAware
07:50AM -22.4240 -43.3250 68° East 544 626 35,000  Level FlightAware
07:50AM -22.3890 -43.2320 68° East 543 625 35,000  Level FlightAware
07:51AM -22.3540 -43.1410 67° East 543 625 35,000  Level FlightAware
07:52AM -22.3240 -43.0620 68° East 542 624 35,000  Level FlightAware
07:52AM -22.2930 -42.9810 68° East 541 623 35,000  Level FlightAware
07:53AM -22.2470 -42.8600 68° East 542 624 35,000  Level FlightAware
07:53AM -22.2140 -42.7740 68° East 541 623 35,000  Level FlightAware
07:54AM -22.1750 -42.6740 67° East 540 621 35,000  Level FlightAware
07:55AM -22.1390 -42.5980 63° Northeast 539 620 35,000  Level FlightAware
07:55AM -22.0800 -42.5050 56° Northeast 537 618 35,000  Level FlightAware
07:56AM -22.0320 -42.4430 50° Northeast 535 616 35,000  Level FlightAware
07:56AM -21.9800 -42.3780 49° Northeast 536 617 35,000  Level FlightAware
07:57AM -21.9150 -42.2980 49° Northeast 536 617 35,000  Level FlightAware
07:58AM -21.8590 -42.2290 49° Northeast 533 613 35,000  Level FlightAware
07:58AM -21.7920 -42.1470 49° Northeast 532 612 35,000  Level FlightAware
07:59AM -21.7260 -42.0670 48° Northeast 533 613 35,000 -180 Level FlightAware
08:00AM -21.6670 -41.9950 49° Northeast 534 615 34,800 -1,200 Descending FlightAware
08:00AM -21.6010 -41.9150 48° Northeast 530 610 33,500 -2,220 Descending FlightAware
08:01AM -21.5620 -41.8670 49° Northeast 524 603 32,400 -3,060 Descending FlightAware
08:01AM -21.5100 -41.8040 48° Northeast 525 604 30,600 -3,300 Descending FlightAware
08:02AM -21.4440 -41.7240 48° Northeast 521 600 28,400 -2,760 Descending FlightAware
08:02AM -21.3940 -41.6640 48° Northeast 505 581 27,200 -2,220 Descending FlightAware
08:03AM -21.3330 -41.5890 49° Northeast 484 557 25,700 -2,280 Descending FlightAware
08:04AM -21.2710 -41.5150 48° Northeast 467 537 24,200 -2,220 Descending FlightAware
08:04AM -21.2280 -41.4620 49° Northeast 459 528 23,000 -1,320 Descending FlightAware
08:05AM -21.1710 -41.3940 48° Northeast 454 522 22,400 -420 Descending FlightAware
08:06AM -21.1280 -41.3430 48° Northeast 454 522 22,400  Level FlightAware
08:06AM -21.0850 -41.2910 48° Northeast 454 522 22,400  Level FlightAware
08:07AM -21.0280 -41.2230 48° Northeast 454 522 22,400  Level FlightAware
08:08AM -20.9850 -41.1720 48° Northeast 454 522 22,400 -5,340 Level FlightAware
08:08AM -20.9660 -41.1460 52° Northeast 96 110 16,500 -7,680 Descending FlightAware
08:09AM -20.9230 -41.0950 48° Northeast 411 473 15,400 -2,520 Descending FlightAware
08:09AM -20.8770 -41.0390 49° Northeast 405 466 14,200 -1,800 Descending FlightAware
08:10AM -20.8540 -41.0110 49° Northeast 402 463 13,600 -1,740 Descending FlightAware
08:10AM -20.7950 -40.9400 48° Northeast 394 453 12,200 -1,980 Descending FlightAware
08:11AM -20.7750 -40.9170 47° Northeast 391 450 11,700 -1,380 Descending FlightAware
08:12AM -20.7060 -40.8250 51° Northeast 371 427 10,600 -960 Descending FlightAware
08:12AM -20.6750 -40.7700 59° Northeast 340 391 10,200 -780 Descending FlightAware
08:13AM -20.6600 -40.7450 57° Northeast 328 377 9,900 -1,080 Descending FlightAware
08:13AM -20.6390 -40.7090 58° Northeast 312 359 9,500 -1,140 Descending FlightAware
08:13AM -20.6210 -40.6770 59° Northeast 308 354 8,900 -1,380 Descending FlightAware
08:14AM -20.6090 -40.6570 57° Northeast 305 351 8,500 -1,440 Descending FlightAware
08:14AM -20.5900 -40.6240 58° Northeast 297 342 8,000 -1,500 Descending FlightAware
08:14AM -20.5730 -40.5950 58° Northeast 296 341 7,300 -1,680 Descending FlightAware
08:15AM -20.5550 -40.5640 58° Northeast 296 341 6,600 -1,620 Descending FlightAware
08:15AM -20.5400 -40.5400 56° Northeast 296 341 6,100 -1,380 Descending FlightAware
08:16AM -20.5240 -40.5110 60° Northeast 280 322 5,600 -1,740 Descending FlightAware
08:16AM -20.5110 -40.4890 58° Northeast 271 312 4,900 -2,100 Descending FlightAware
08:16AM -20.4970 -40.4650 58° Northeast 270 311 4,200 -1,320 Descending FlightAware
08:17AM -20.4820 -40.4390 58° Northeast 256 295 3,900 -600 Descending FlightAware
08:17AM -20.4660 -40.4240 41° Northeast 232 267 3,800 -420 Descending FlightAware
08:17AM -20.4560 -40.4180 29° Northeast 225 259 3,700 -180 Descending FlightAware
08:18AM -20.4380 -40.4060 32° Northeast 206 237 3,700  Level FlightAware
08:18AM -20.4190 -40.3940 31° Northeast 197 227 3,700  Level FlightAware
08:18AM -20.4050 -40.3840 34° Northeast 185 213 3,700 -540 Level FlightAware
08:19AM -20.3900 -40.3740 32° Northeast 174 200 3,300 -1,440 Descending FlightAware
08:19AM -20.3730 -40.3630 31° Northeast 159 183 2,800 -1,200 Descending FlightAware
08:19AM -20.3600 -40.3540 33° Northeast 145 167 2,500 -780 Descending FlightAware
08:20AM -20.3540 -40.3500 32° Northeast 141 162 2,300 -780 Descending FlightAware
08:20AM -20.3410 -40.3410 33° Northeast 140 161 2,000 -900 Descending FlightAware
08:21AM -20.3250 -40.3310 30° Northeast 141 162 1,600 -900 Descending FlightAware
08:21AM -20.3140 -40.3240 31° Northeast 135 155 1,300 -780 Descending FlightAware
08:21AM -20.3020 -40.3160 32° Northeast 133 153 1,000 -780 Descending FlightAware
08:22AM -20.2900 -40.3080 32° Northeast 135 155 700 -780 Descending FlightAware
08:22AM -20.2840 -40.3040 32° Northeast 134 154 500 -660 Descending FlightAware
08:22AM -20.2750 -40.2980 32° Northeast 131 151 300 -540 Descending FlightAware
08:23AM -20.2690 -40.2940 32° Northeast 132 152 100 -540 Descending FlightAware
08:23AM -20.2600 -40.2890 28° Northeast 131 151 -420 Descending FlightAware
08:23AM -20.2580 -40.2870 43° Northeast 128 147  Level FlightAware
08:24AM -20.2520 -40.2830 32° Northeast 128 147  Level FlightAware
08:24AM -20.2520 -40.2820 90° East 128 147  Level FlightAware
08:24AM -20.2520 -40.2830 270° West 128 147  Level FlightAware
08:24AM -20.2540 -40.2840 205° Southwest 128 147  Level FlightAware
08:25AM -20.2570 -40.2860 212° Southwest 128 147  Level FlightAware
08:25AM -20.2570 -40.2870 270° West 128 147  Level FlightAware
08:26AM -20.2570 -40.2880 270° West 128 147  Level FlightAware
08:27AM -20.2560 -40.2880 360° North 128 147  Level FlightAware
08:28AM -20.2610 -40.2740 111° Southeast 128 147  Level FlightAware
08:29AM -20.2600 -40.2750 317° Northwest 128 147  Level FlightAware
08:29AM -20.2610 -40.2740 137° Southeast 128 147  Level FlightAware
08:30AM -20.2600 -40.2750 317° Northwest 128 147  Level FlightAware
08:32AM -20.2581 -40.2864 280° West  Level Estimated
08:32AM -20.2600 -40.2750 280° West 128 147  Level FlightAware
08:32AM -20.2560 -40.2880 288° West 128 147  Level FlightAware
08:33AM -20.2600 -40.2740 107° East 128 147  Level FlightAware
08:36AM -20.2581 -40.2864 279° West  Level Estimated
08:37AM -20.2581 -40.2864 13° North  Level Estimated
08:38AM -20.2581 -40.2864 13° North  Level Estimated
08:39AM -20.2581 -40.2864 13° North  Level Estimated
08:40AM -20.2581 -40.2864 13° North  Level Estimated
08:41AM -20.2581 -40.2864 13° North  Level Estimated
08:42AM -20.2581 -40.2864 13° North  Level Estimated
08:43AM -20.2581 -40.2864 13° North  Level Estimated
08:44AM -20.2581 -40.2864 13° North  Level Estimated
08:45AM -20.2581 -40.2864 13° North  Level Estimated
08:46AM -20.2581 -40.2864 13° North  Level Estimated
08:47AM -20.2581 -40.2864 13° North  Level Estimated
08:48AM -20.2581 -40.2864 13° North  Level Estimated
08:49AM -20.2581 -40.2864 13° North  Level Estimated
08:50AM -20.2581 -40.2864 13° North  Level Estimated
08:51AM -20.2581 -40.2864 13° North  Level Estimated
08:52AM -20.2581 -40.2864 13° North  Level Estimated